createdAt,value
2022-11-24T00:01:19.687Z,99187.06
2022-11-24T00:03:52.801Z,99193.84
2022-11-24T00:06:19.427Z,99190.78
2022-11-24T00:08:46.869Z,99190.38
2022-11-24T00:11:16.320Z,99188.91
2022-11-24T00:13:43.548Z,99187.53
2022-11-24T00:16:21.673Z,99190.59
2022-11-24T00:18:49.659Z,99193.03
2022-11-24T00:21:17.548Z,99193.03
2022-11-24T00:23:44.675Z,99199.97
2022-11-24T00:26:26.200Z,99202.25
2022-11-24T00:28:54.524Z,99201.84
2022-11-24T00:31:29.481Z,99206.56
2022-11-24T00:33:58.948Z,99196.09
2022-11-24T00:36:28.945Z,99200.41
2022-11-24T00:39:00.569Z,99192.25
2022-11-24T00:41:28.330Z,99194.28
2022-11-24T00:43:55.571Z,99192.03
2022-11-24T00:46:22.747Z,99196.91
2022-11-24T00:48:49.805Z,99194.06
2022-11-24T00:51:18.471Z,99198.38
2022-11-24T00:53:45.255Z,99195.28
2022-11-24T00:56:12.518Z,99198.19
2022-11-24T00:58:39.346Z,99197.56
2022-11-24T01:01:13.436Z,99200.44
2022-11-24T01:03:40.347Z,99208.25
2022-11-24T01:06:08.234Z,99195.31
2022-11-24T01:08:37.005Z,99192.03
2022-11-24T01:11:17.290Z,99198.38
2022-11-24T01:13:49.673Z,99209.66
2022-11-24T01:16:17.287Z,99211.91
2022-11-24T01:18:45.063Z,99205.75
2022-11-24T01:21:11.688Z,99207.38
2022-11-24T01:23:38.483Z,99201.84
2022-11-24T01:26:06.940Z,99199.97
2022-11-24T01:28:33.584Z,99203.47
2022-11-24T01:31:01.424Z,99203.66
2022-11-24T01:33:28.555Z,99192.22
2022-11-24T01:35:55.241Z,99191.63
2022-11-24T01:38:22.867Z,99184.63
2022-11-24T01:40:49.538Z,99180.56
2022-11-24T01:43:22.264Z,99179.34
2022-11-24T01:45:50.890Z,99185.47
2022-11-24T01:48:25.949Z,99179.53
2022-11-24T01:51:04.224Z,99183.81
2022-11-24T01:53:33.641Z,99178.13
2022-11-24T01:56:02.438Z,99193.69
2022-11-24T01:58:31.250Z,99200.63
2022-11-24T02:00:59.456Z,99207.19
2022-11-24T02:03:34.963Z,99213.75
2022-11-24T02:06:09.397Z,99220.09
2022-11-24T02:08:47.342Z,99217.66
2022-11-24T02:11:14.001Z,99230.75
2022-11-24T02:13:41.249Z,99231.78
2022-11-24T02:16:09.139Z,99229.31
2022-11-24T02:18:37.681Z,99240.16
2022-11-24T02:21:04.423Z,99253.47
2022-11-24T02:23:49.333Z,99256.31
2022-11-24T02:26:34.636Z,99263.09
2022-11-24T02:29:02.068Z,99271.91
2022-11-24T02:31:29.044Z,99282.50
2022-11-24T02:33:55.933Z,99286.59
2022-11-24T02:36:22.508Z,99288.84
2022-11-24T02:38:49.123Z,99293.91
2022-11-24T02:41:19.928Z,99301.91
2022-11-24T02:43:52.412Z,99303.53
2022-11-24T02:46:19.092Z,99306.19
2022-11-24T02:48:45.766Z,99317.81
2022-11-24T02:51:14.863Z,99320.66
2022-11-24T02:53:41.487Z,99333.16
2022-11-24T02:56:08.193Z,99340.09
2022-11-24T02:58:34.758Z,99351.91
2022-11-24T03:01:01.443Z,99350.94
2022-11-24T03:03:28.192Z,99352.94
2022-11-24T03:05:54.889Z,99358.00
2022-11-24T03:08:21.638Z,99362.00
2022-11-24T03:10:49.121Z,99373.44
2022-11-24T03:13:15.905Z,99370.00
2022-11-24T03:15:42.529Z,99372.66
2022-11-24T03:18:09.203Z,99369.44
2022-11-24T03:20:38.324Z,99385.22
2022-11-24T03:23:04.989Z,99382.94
2022-11-24T03:25:31.590Z,99386.66
2022-11-24T03:27:58.324Z,99388.06
2022-11-24T03:30:25.355Z,99389.63
2022-11-24T03:32:53.696Z,99396.81
2022-11-24T03:35:21.341Z,99401.75
2022-11-24T03:37:48.160Z,99400.56
2022-11-24T03:40:14.934Z,99409.41
2022-11-24T03:42:42.695Z,99417.53
2022-11-24T03:45:38.045Z,99405.97
2022-11-24T03:47:57.117Z,99413.09
2022-11-24T03:50:23.698Z,99415.34
2022-11-24T03:52:50.273Z,99425.47
2022-11-24T03:55:16.944Z,99424.22
2022-11-24T03:57:43.507Z,99426.75
2022-11-24T04:00:11.202Z,99426.34
2022-11-24T04:02:38.198Z,99424.59
2022-11-24T04:05:05.837Z,99432.84
2022-11-24T04:07:32.550Z,99439.78
2022-11-24T04:09:59.280Z,99442.84
2022-11-24T04:12:44.024Z,99442.81
2022-11-24T04:15:18.814Z,99445.03
2022-11-24T04:17:46.199Z,99439.03
2022-11-24T04:20:13.267Z,99448.72
2022-11-24T04:22:40.039Z,99451.16
2022-11-24T04:25:07.859Z,99452.31
2022-11-24T04:27:37.594Z,99457.75
2022-11-24T04:30:05.647Z,99463.66
2022-11-24T04:32:32.248Z,99467.03
2022-11-24T04:34:58.777Z,99476.22
2022-11-24T04:37:28.125Z,99482.22
2022-11-24T04:39:55.303Z,99492.19
2022-11-24T04:42:22.162Z,99494.44
2022-11-24T04:44:48.741Z,99503.25
2022-11-24T04:47:22.984Z,99508.56
2022-11-24T04:49:50.232Z,99506.28
2022-11-24T04:52:19.473Z,99521.13
2022-11-24T04:54:47.004Z,99530.88
2022-11-24T04:57:17.392Z,99530.59
2022-11-24T04:59:44.148Z,99527.44
2022-11-24T05:02:11.305Z,99532.38
2022-11-24T05:04:38.191Z,99541.81
2022-11-24T05:07:04.971Z,99547.09
2022-11-24T05:09:55.040Z,99558.75
2022-11-24T05:12:20.891Z,99556.28
2022-11-24T05:14:47.503Z,99561.84
2022-11-24T05:17:14.096Z,99564.94
2022-11-24T05:19:40.778Z,99564.06
2022-11-24T05:22:07.378Z,99566.81
2022-11-24T05:24:36.202Z,99571.63
2022-11-24T05:27:03.005Z,99570.16
2022-11-24T05:29:29.577Z,99571.06
2022-11-24T05:31:56.354Z,99574.97
2022-11-24T05:34:23.081Z,99577.56
2022-11-24T05:36:55.097Z,99577.41
2022-11-24T05:39:24.125Z,99584.75
2022-11-24T05:41:52.967Z,99585.78
2022-11-24T05:44:27.197Z,99581.84
2022-11-24T05:46:53.942Z,99587.19
2022-11-24T05:49:20.557Z,99584.13
2022-11-24T05:51:47.185Z,99582.31
2022-11-24T05:54:13.808Z,99585.63
2022-11-24T05:56:40.463Z,99578.41
2022-11-24T05:59:09.918Z,99575.22
2022-11-24T06:01:37.061Z,99584.38
2022-11-24T06:04:03.784Z,99579.03
2022-11-24T06:06:30.396Z,99575.38
2022-11-24T06:09:02.368Z,99585.88
2022-11-24T06:11:29.558Z,99579.81
2022-11-24T06:13:56.180Z,99580.72
2022-11-24T06:16:23.028Z,99574.53
2022-11-24T06:18:49.661Z,99577.25
2022-11-24T06:21:19.990Z,99578.09
2022-11-24T06:23:49.925Z,99581.81
2022-11-24T06:26:17.885Z,99571.47
2022-11-24T06:28:44.572Z,99573.13
2022-11-24T06:31:11.366Z,99578.03
2022-11-24T06:33:38.697Z,99569.94
2022-11-24T06:36:07.538Z,99557.66
2022-11-24T06:38:35.247Z,99559.25
2022-11-24T06:41:05.829Z,99557.94
2022-11-24T06:43:35.500Z,99550.16
2022-11-24T06:46:02.796Z,99546.84
2022-11-24T06:48:30.331Z,99555.09
2022-11-24T06:51:01.631Z,99549.91
2022-11-24T06:53:37.919Z,99547.53
2022-11-24T06:56:16.329Z,99540.16
2022-11-24T06:58:50.658Z,99539.72
2022-11-24T07:01:25.502Z,99535.56
2022-11-24T07:03:53.072Z,99530.47
2022-11-24T07:06:23.934Z,99533.94
2022-11-24T07:08:50.873Z,99529.44
2022-11-24T07:11:21.870Z,99527.78
2022-11-24T07:13:49.176Z,99535.56
2022-11-24T07:16:23.749Z,99530.25
2022-11-24T07:18:51.687Z,99532.53
2022-11-24T07:21:19.733Z,99544.00
2022-11-24T07:23:52.965Z,99533.81
2022-11-24T07:26:20.299Z,99536.03
2022-11-24T07:28:47.330Z,99532.34
2022-11-24T07:31:20.476Z,99540.13
2022-11-24T07:33:53.780Z,99537.66
2022-11-24T07:36:20.997Z,99538.47
2022-11-24T07:38:47.990Z,99547.75
2022-11-24T07:41:19.439Z,99558.88
2022-11-24T07:43:46.570Z,99551.00
2022-11-24T07:46:15.872Z,99552.19
2022-11-24T07:48:49.921Z,99551.00
2022-11-24T07:51:16.616Z,99558.56
2022-11-24T07:53:43.789Z,99563.06
2022-11-24T07:56:10.815Z,99568.06
2022-11-24T07:58:37.791Z,99564.97
2022-11-24T08:01:17.951Z,99566.00
2022-11-24T08:03:45.608Z,99570.50
2022-11-24T08:06:25.041Z,99574.59
2022-11-24T08:08:51.989Z,99574.41
2022-11-24T08:11:21.514Z,99577.88
2022-11-24T08:13:48.181Z,99585.06
2022-11-24T08:16:17.557Z,99584.44
2022-11-24T08:18:44.832Z,99582.00
2022-11-24T08:21:14.542Z,99596.53
2022-11-24T08:23:41.989Z,99608.63
2022-11-24T08:26:11.470Z,99608.69
2022-11-24T08:28:38.234Z,99614.41
2022-11-24T08:31:13.737Z,99621.84
2022-11-24T08:33:41.262Z,99626.97
2022-11-24T08:36:10.577Z,99616.09
2022-11-24T08:38:40.347Z,99616.72
2022-11-24T08:41:12.430Z,99619.00
2022-11-24T08:43:39.206Z,99634.13
2022-11-24T08:46:13.019Z,99633.09
2022-11-24T08:48:40.311Z,99637.19
2022-11-24T08:51:12.250Z,99646.44
2022-11-24T08:53:39.509Z,99657.75
2022-11-24T08:56:06.611Z,99664.50
2022-11-24T08:58:36.468Z,99670.47
2022-11-24T09:01:08.269Z,99668.28
2022-11-24T09:03:35.383Z,99672.78
2022-11-24T09:06:04.179Z,99666.78
2022-11-24T09:08:31.227Z,99656.81
2022-11-24T09:11:17.294Z,99662.69
2022-11-24T09:13:44.598Z,99656.34
2022-11-24T09:16:23.288Z,99654.28
2022-11-24T09:19:01.191Z,99651.47
2022-11-24T09:21:28.579Z,99656.59
2022-11-24T09:23:55.442Z,99654.97
2022-11-24T09:26:23.495Z,99653.13
2022-11-24T09:28:54.294Z,99660.13
2022-11-24T09:31:25.209Z,99653.53
2022-11-24T09:33:52.486Z,99653.78
2022-11-24T09:36:19.514Z,99649.47
2022-11-24T09:38:46.196Z,99640.06
2022-11-24T09:41:15.183Z,99632.88
2022-11-24T09:44:08.725Z,99630.78
2022-11-24T09:46:35.516Z,99631.59
2022-11-24T09:49:03.690Z,99620.09
2022-11-24T09:51:31.757Z,99622.16
2022-11-24T09:54:03.518Z,99614.38
2022-11-24T09:56:33.698Z,99611.50
2022-11-24T09:59:06.350Z,99602.44
2022-11-24T10:01:39.616Z,99600.38
2022-11-24T10:04:15.521Z,99595.06
2022-11-24T10:07:19.455Z,99601.81
2022-11-24T10:09:50.653Z,99601.53
2022-11-24T10:12:37.452Z,99596.00
2022-11-24T10:15:20.708Z,99601.78
2022-11-24T10:17:58.084Z,99605.91
2022-11-24T10:20:30.788Z,99593.28
2022-11-24T10:23:18.756Z,99598.44
2022-11-24T10:25:54.410Z,99597.22
2022-11-24T10:28:21.147Z,99597.78
2022-11-24T10:30:47.936Z,99602.78
2022-11-24T10:33:18.724Z,99602.56
2022-11-24T10:35:50.080Z,99599.53
2022-11-24T10:38:19.727Z,99591.81
2022-11-24T10:40:58.367Z,99602.59
2022-11-24T10:43:27.987Z,99606.97
2022-11-24T10:46:27.977Z,99597.88
2022-11-24T10:49:03.203Z,99601.13
2022-11-24T10:51:57.053Z,99602.78
2022-11-24T10:54:24.138Z,99595.41
2022-11-24T10:56:52.883Z,99608.34
2022-11-24T10:59:37.773Z,99600.72
2022-11-24T11:02:34.287Z,99600.97
2022-11-24T11:05:34.111Z,99609.00
2022-11-24T11:08:14.702Z,99607.56
2022-11-24T11:10:42.861Z,99609.41
2022-11-24T11:13:29.457Z,99614.97
2022-11-24T11:15:57.769Z,99613.25
2022-11-24T11:18:35.283Z,99611.19
2022-11-24T11:21:02.500Z,99614.09
2022-11-24T11:23:31.649Z,99617.63
2022-11-24T11:26:25.104Z,99620.66
2022-11-24T11:35:03.723Z,99622.72
2022-11-24T11:37:32.669Z,99625.22
2022-11-24T11:39:59.640Z,99635.50
2022-11-24T11:43:00.784Z,99644.38
2022-11-24T11:45:25.286Z,99634.03
2022-11-24T11:47:56.792Z,99652.97
2022-11-24T11:50:27.754Z,99654.03
2022-11-24T11:52:57.341Z,99656.47
2022-11-24T11:56:01.704Z,99659.75
2022-11-24T11:58:59.467Z,99666.75
2022-11-24T12:01:44.512Z,99673.31
2022-11-24T12:04:36.076Z,99671.25
2022-11-24T12:07:30.355Z,99675.16
2022-11-24T12:10:07.667Z,99674.13
2022-11-24T12:12:40.240Z,99684.19
2022-11-24T12:15:22.064Z,99686.25
2022-11-24T12:18:04.808Z,99687.88
2022-11-24T12:20:50.122Z,99697.31
2022-11-24T12:23:39.344Z,99690.97
2022-11-24T12:26:15.962Z,99693.44
2022-11-24T12:29:14.914Z,99703.09
2022-11-24T12:32:26.875Z,99699.59
2022-11-24T12:35:20.812Z,99709.47
2022-11-24T12:38:13.473Z,99716.47
2022-11-24T12:41:39.971Z,99714.56
2022-11-24T12:43:59.594Z,99713.16
2022-11-24T12:46:38.382Z,99726.91
2022-11-24T12:49:05.007Z,99728.75
2022-11-24T12:51:35.686Z,99726.91
2022-11-24T12:54:06.050Z,99726.69
2022-11-24T12:56:57.548Z,99731.22
2022-11-24T12:59:34.610Z,99730.97
2022-11-24T13:02:08.312Z,99733.84
2022-11-24T13:04:40.043Z,99735.91
2022-11-24T13:07:59.428Z,99728.50
2022-11-24T13:10:53.998Z,99733.84
2022-11-24T13:13:17.365Z,99731.59
2022-11-24T13:16:07.113Z,99723.00
2022-11-24T13:18:56.933Z,99723.59
2022-11-24T13:21:32.286Z,99729.53
2022-11-24T13:24:21.409Z,99730.16
2022-11-24T13:26:48.571Z,99731.59
2022-11-24T13:29:27.573Z,99727.31
2022-11-24T13:32:06.847Z,99725.44
2022-11-24T13:34:39.952Z,99719.91
2022-11-24T13:37:31.116Z,99720.34
2022-11-24T13:40:02.374Z,99731.59
2022-11-24T13:42:43.075Z,99740.63
2022-11-24T13:45:40.337Z,99746.78
2022-11-24T13:48:20.080Z,99753.56
2022-11-24T13:50:50.463Z,99755.38
2022-11-24T13:53:36.110Z,99752.50
2022-11-24T13:56:03.675Z,99768.06
2022-11-24T13:58:40.911Z,99773.44
2022-11-24T14:01:14.038Z,99776.16
2022-11-24T14:04:07.067Z,99774.66
2022-11-24T14:06:42.540Z,99768.53
2022-11-24T14:09:28.740Z,99767.72
2022-11-24T14:12:02.301Z,99781.88
2022-11-24T14:14:29.087Z,99776.56
2022-11-24T14:17:28.697Z,99776.56
2022-11-24T14:19:57.083Z,99767.25
2022-11-24T14:22:27.695Z,99774.59
2022-11-24T14:24:59.034Z,99785.84
2022-11-24T14:27:36.996Z,99791.16
2022-11-24T14:30:09.745Z,99792.72
2022-11-24T14:32:39.607Z,99804.16
2022-11-24T14:35:29.652Z,99806.19
2022-11-24T14:37:56.461Z,99808.22
2022-11-24T14:40:42.989Z,99817.28
2022-11-24T14:43:20.673Z,99820.69
2022-11-24T14:45:55.226Z,99828.63
2022-11-24T14:48:51.425Z,99832.09
2022-11-24T14:51:24.073Z,99847.44
2022-11-24T14:53:53.092Z,99863.38
2022-11-24T14:56:26.985Z,99867.28
2022-11-24T14:58:54.852Z,99875.50
2022-11-24T15:01:23.538Z,99891.09
2022-11-24T15:04:32.843Z,99898.03
2022-11-24T15:07:16.700Z,99910.47
2022-11-24T15:09:50.703Z,99912.81
2022-11-24T15:12:38.506Z,99916.03
2022-11-24T15:15:35.471Z,99921.03
2022-11-24T15:18:04.463Z,99925.41
2022-11-24T15:20:37.723Z,99936.38
2022-11-24T15:23:14.442Z,99935.75
2022-11-24T15:25:41.213Z,99941.50
2022-11-24T15:28:08.891Z,99943.19
2022-11-24T15:30:37.054Z,99953.91
2022-11-24T15:33:10.178Z,99959.41
2022-11-24T15:35:36.855Z,99965.31
2022-11-24T15:38:03.513Z,99963.03
2022-11-24T15:40:30.690Z,99974.28
2022-11-24T15:42:59.594Z,99985.34
2022-11-24T15:45:30.137Z,99981.16
2022-11-24T15:47:56.838Z,99992.22
2022-11-24T15:50:23.502Z,100001.66
2022-11-24T15:52:50.172Z,100009.34
2022-11-24T15:55:23.574Z,100021.56
2022-11-24T15:57:50.305Z,100030.81
2022-11-24T16:00:22.158Z,100041.00
2022-11-24T16:02:50.554Z,100039.44
2022-11-24T16:05:19.637Z,100044.09
2022-11-24T16:07:46.398Z,100049.28
2022-11-24T16:10:28.834Z,100043.69
2022-11-24T16:12:55.614Z,100057.63
2022-11-24T16:15:22.497Z,100055.38
2022-11-24T16:17:51.764Z,100063.16
2022-11-24T16:20:20.854Z,100061.84
2022-11-24T16:22:50.664Z,100068.25
2022-11-24T16:25:17.412Z,100083.41
2022-11-24T16:27:47.479Z,100081.38
2022-11-24T16:30:22.713Z,100088.34
2022-11-24T16:32:49.726Z,100086.81
2022-11-24T16:35:25.348Z,100085.88
2022-11-24T16:37:52.322Z,100090.47
2022-11-24T16:40:19.166Z,100096.72
2022-11-24T16:42:48.053Z,100095.16
2022-11-24T16:45:19.535Z,100094.41
2022-11-24T16:47:48.774Z,100101.84
2022-11-24T16:50:17.688Z,100110.53
2022-11-24T16:52:47.361Z,100111.66
2022-11-24T16:55:16.262Z,100116.63
2022-11-24T16:57:47.413Z,100116.22
2022-11-24T17:00:17.978Z,100119.81
2022-11-24T17:02:44.669Z,100121.28
2022-11-24T17:05:11.401Z,100120.81
2022-11-24T17:07:38.200Z,100124.66
2022-11-24T17:10:06.400Z,100124.97
2022-11-24T17:12:36.238Z,100127.41
2022-11-24T17:15:31.037Z,100132.47
2022-11-24T17:18:16.155Z,100135.91
2022-11-24T17:20:36.336Z,100136.91
2022-11-24T17:23:02.942Z,100141.13
2022-11-24T17:25:30.748Z,100144.03
2022-11-24T17:27:57.362Z,100154.09
2022-11-24T17:30:23.973Z,100156.31
2022-11-24T17:32:56.380Z,100154.94
2022-11-24T17:35:23.591Z,100167.53
2022-11-24T17:37:52.737Z,100163.84
2022-11-24T17:40:34.687Z,100169.66
2022-11-24T17:43:01.419Z,100174.53
2022-11-24T17:45:29.250Z,100185.88
2022-11-24T17:47:56.931Z,100191.66
2022-11-24T17:50:26.127Z,100189.66
2022-11-24T17:52:54.128Z,100191.13
2022-11-24T17:55:21.478Z,100207.03
2022-11-24T17:57:48.075Z,100197.47
2022-11-24T18:00:15.193Z,100208.78
2022-11-24T18:02:41.818Z,100218.75
2022-11-24T18:05:10.937Z,100227.06
2022-11-24T18:07:37.581Z,100222.75
2022-11-24T18:10:04.756Z,100234.88
2022-11-24T18:12:32.365Z,100239.88
2022-11-24T18:14:59.183Z,100249.97
2022-11-24T18:17:27.890Z,100261.25
2022-11-24T18:19:54.764Z,100263.91
2022-11-24T18:22:43.083Z,100263.13
2022-11-24T18:25:08.288Z,100269.88
2022-11-24T18:27:34.959Z,100266.56
2022-11-24T18:30:01.696Z,100279.00
2022-11-24T18:32:31.878Z,100287.81
2022-11-24T18:34:58.505Z,100309.06
2022-11-24T18:37:25.163Z,100318.34
2022-11-24T18:39:51.905Z,100331.81
2022-11-24T18:42:18.528Z,100332.81
2022-11-24T18:44:48.606Z,100342.56
2022-11-24T18:47:17.824Z,100340.91
2022-11-24T18:49:44.435Z,100344.88
2022-11-24T18:52:11.058Z,100356.47
2022-11-24T18:54:37.888Z,100362.28
2022-11-24T18:57:09.725Z,100369.75
2022-11-24T18:59:36.814Z,100390.97
2022-11-24T19:02:03.561Z,100412.50
2022-11-24T19:04:30.218Z,100418.28
2022-11-24T19:06:57.204Z,100426.69
2022-11-24T19:09:30.549Z,100443.59
2022-11-24T19:12:13.064Z,100448.31
2022-11-24T19:14:39.715Z,100451.13
2022-11-24T19:17:06.527Z,100451.00
2022-11-24T19:22:53.820Z,100462.59
2022-11-24T19:25:23.531Z,100458.41
2022-11-24T19:28:15.491Z,100456.94
2022-11-24T19:30:42.212Z,100448.25
2022-11-24T19:33:09.107Z,100441.88
2022-11-24T19:35:35.729Z,100453.16
2022-11-24T19:38:04.561Z,100448.13
2022-11-24T19:40:31.248Z,100464.38
2022-11-24T19:43:00.254Z,100456.16
2022-11-24T19:45:26.998Z,100455.28
2022-11-24T19:47:53.617Z,100457.31
2022-11-24T19:50:20.304Z,100461.81
2022-11-24T19:52:49.913Z,100461.50
2022-11-24T19:55:19.987Z,100463.03
2022-11-24T19:58:01.280Z,100473.00
2022-11-24T20:00:31.803Z,100474.97
2022-11-24T20:02:58.829Z,100477.19
2022-11-24T20:05:31.092Z,100488.91
2022-11-24T20:07:57.840Z,100484.88
2022-11-24T20:10:24.506Z,100488.25
2022-11-24T20:12:51.122Z,100491.00
2022-11-24T20:15:17.995Z,100490.59
2022-11-24T20:17:52.646Z,100508.34
2022-11-24T20:20:22.361Z,100516.38
2022-11-24T20:22:49.260Z,100507.09
2022-11-24T20:25:17.664Z,100519.56
2022-11-24T20:27:44.838Z,100524.19
2022-11-24T20:30:11.838Z,100520.00
2022-11-24T20:32:38.545Z,100524.75
2022-11-24T20:35:05.520Z,100517.97
2022-11-24T20:37:34.081Z,100527.16
2022-11-24T20:40:03.153Z,100517.03
2022-11-24T20:42:31.422Z,100530.47
2022-11-24T20:45:06.887Z,100538.75
2022-11-24T20:47:33.730Z,100537.81
2022-11-24T20:50:00.353Z,100532.72
2022-11-24T20:52:26.919Z,100548.94
2022-11-24T20:54:53.601Z,100553.28
2022-11-24T20:57:22.462Z,100550.19
2022-11-24T20:59:49.982Z,100559.50
2022-11-24T21:02:16.616Z,100563.84
2022-11-24T21:04:43.227Z,100564.16
2022-11-24T21:07:13.337Z,100567.31
2022-11-24T21:09:42.310Z,100565.94
2022-11-24T21:12:08.958Z,100556.63
2022-11-24T21:14:35.694Z,100559.09
2022-11-24T21:17:02.423Z,100561.78
2022-11-24T21:19:29.060Z,100553.91
2022-11-24T21:22:03.155Z,100558.94
2022-11-24T21:24:31.076Z,100558.94
2022-11-24T21:26:57.866Z,100558.06
2022-11-24T21:29:27.498Z,100570.38
2022-11-24T21:31:57.247Z,100567.06
2022-11-24T21:34:27.117Z,100575.06
2022-11-24T21:37:11.403Z,100570.88
2022-11-24T21:39:38.072Z,100564.81
2022-11-24T21:42:05.104Z,100574.34
2022-11-24T21:44:35.236Z,100568.84
2022-11-24T21:47:03.532Z,100571.25
2022-11-24T21:49:30.093Z,100569.03
2022-11-24T21:51:56.762Z,100566.41
2022-11-24T21:54:28.112Z,100557.91
2022-11-24T21:57:01.908Z,100559.50
2022-11-24T21:59:28.692Z,100561.66
2022-11-24T22:01:57.653Z,100558.84
2022-11-24T22:04:30.710Z,100560.72
2022-11-24T22:06:59.712Z,100557.25
2022-11-24T22:09:33.993Z,100554.91
2022-11-24T22:12:01.063Z,100553.19
2022-11-24T22:14:32.330Z,100548.25
2022-11-24T22:17:04.616Z,100545.53
2022-11-24T22:19:31.293Z,100556.13
2022-11-24T22:21:57.921Z,100557.25
2022-11-24T22:24:27.480Z,100565.72
2022-11-24T22:26:56.876Z,100560.97
2022-11-24T22:29:30.887Z,100565.91
2022-11-24T22:31:59.923Z,100559.06
2022-11-24T22:34:29.370Z,100564.97
2022-11-24T22:36:56.012Z,100563.63
2022-11-24T22:39:32.377Z,100562.88
2022-11-24T22:42:01.578Z,100556.34
2022-11-24T22:44:31.163Z,100558.94
2022-11-24T22:46:59.927Z,100563.84
2022-11-24T22:49:29.578Z,100567.31
2022-11-24T22:51:56.310Z,100555.75
2022-11-24T22:54:22.896Z,100553.91
2022-11-24T22:56:49.617Z,100549.91
2022-11-24T22:59:16.157Z,100549.28
2022-11-24T23:01:50.014Z,100552.56
2022-11-24T23:04:16.765Z,100555.22
2022-11-24T23:06:43.525Z,100564.28
2022-11-24T23:09:15.739Z,100569.38
2022-11-24T23:11:42.612Z,100573.97
2022-11-24T23:14:14.675Z,100581.97
2022-11-24T23:16:41.940Z,100573.97
2022-11-24T23:19:10.956Z,100594.81
2022-11-24T23:21:38.522Z,100595.56
2022-11-24T23:24:06.535Z,100608.75
2022-11-24T23:26:36.682Z,100609.44
2022-11-24T23:29:04.796Z,100623.28
2022-11-24T23:31:31.786Z,100619.50
2022-11-24T23:34:00.283Z,100617.53
2022-11-24T23:36:27.906Z,100612.06
2022-11-24T23:38:54.844Z,100608.34
2022-11-24T23:41:25.729Z,100611.19
2022-11-24T23:43:52.860Z,100607.53
2022-11-24T23:46:24.386Z,100602.63
2022-11-24T23:48:56.674Z,100596.47
2022-11-24T23:51:23.242Z,100611.69
2022-11-24T23:53:50.537Z,100620.94
2022-11-24T23:56:19.532Z,100615.41
2022-11-24T23:58:46.304Z,100615.09
